Point Salines, Grenada

5:03 PM AST on February 12, 2016 (GMT -0400)
Point Salines International | | Change Station
CLOSE
Current Station
Airport
Location: Point Salines,
Elevation: 23 ft
Nearby Weather Stations

Elev 23 ft 12.00 °N, 61.79 °W | Updated 3 minutes ago

Partly Cloudy
Partly Cloudy
82 °F
Feels Like 87 °F
N
17
Wind Variable Wind from ENE

Today
High -- | Low -- °F
--% Chance of Precip.
Yesterday
High -- | Low -- °F
Precip. -- in
Pressure 29.95 in
Visibility 6.2 miles
Clouds Few 1900 ft
Heat Index 87 °F
Dew Point 72 °F
Humidity 70%
Rainfall 0.00 in
Snow Depth Not available.
6:29 AM 6:13 PM
Waxing Crescent, 23% visible
METAR TGPY 122100Z 07015KT 9999 FEW019 28/22 Q1014 NOSIG
Pressure 29.95 in
Visibility 6.2 miles
Clouds Few 1900 ft
Heat Index 87 °F
Dew Point 72 °F
Humidity 70%
Rainfall 0.00 in
Snow Depth Not available.
6:29 AM 6:13 PM
Waxing Crescent, 23% visible
METAR TGPY 122100Z 07015KT 9999 FEW019 28/22 Q1014 NOSIG

10-Day Weather Forecast

No radar image for this location.
×

Almanac

Astronomy

Feb. 12, 2016 Rise Set
Actual Time
Civil Twilight
Nautical Twilight
Astronomical Twilight
Moon
Length of Visible Light
Length of Day
Tomorrow will be .
, % of the Moon is Illuminated

Today's Extremes

Country Highs Country Lows

Community

WunderPhotos

Upload Photos

1,892,397 photos uploaded!

WunderBlog® & News

Nearby

Air Quality

  Air Quality AQ Index Pollutant
Not available.

Snow Depth

Station Depth Elevation

Earthquake Activity

City Distance Mag. Time & Date
Minimum magnitude displayed is 2.5.

Coastal Water Temperatures

Place Temperature

Stations

Nearby Weather Stations

Station Location Temp. Windchill Dew Point Humidity Wind Precip. Elev Updated Type